EW7638 Weather Reports


Display with metric or nautical units.
time (UTC)temp
F
wind
direction
speed
MPH
gust
MPH
rain 1hr
in
rain 24hr
in
rain mn
in
humidity
%
barometer
mb
20180821062044 74 132 0.0 3.0 0.16 0.31 0.23 96 1016.6
20180821061543 74 45 0.0 3.0 0.12 0.28 0.20 96 1016.7
20180821061042 74 243 0.0 2.0 0.08 0.26 0.15 96 1016.5
20180821060542 74 117 0.0 1.0 0.05 0.22 0.10 96 1016.5
20180821060049 74 120 0.0 4.0 0.06 0.33 0.09 96 1016.5
20180821055542 74 110 0.0 4.0 0.07 0.42 0.09 95 1016.4
20180821055042 74 129 0.0 1.0 0.07 0.44 0.09 95 1016.5
20180821054042 75 115 0.0 1.0 0.08 0.43 0.08 96 1016.7
20180821053542 75 124 0.0 3.0 0.08 0.43 0.08 95 1016.9
20180821053042 75 128 0.0 3.0 0.08 0.43 0.08 95 1016.9
20180821052542 75 112 0.0 3.0 0.08 0.43 0.08 95 1017.1
20180821052042 75 141 0.0 2.0 0.07 0.42 0.07 95 1017.3
20180821051542 75 141 0.0 3.0 0.07 0.42 0.07 95 1017.4
20180821051042 75 232 0.0 3.0 0.06 0.41 0.06 95 1017.5
20180821050542 75 173 0.0 1.0 0.04 0.39 0.05 95 1017.6
20180821050042 75 174 0.0 1.0 0.03 0.38 0.04 94 1017.6
20180821045542 75 117 0.0 1.0 0.02 0.37 0.02 94 1017.5
20180821045042 75 115 0.0 0.0 0.02 0.37 0.02 93 1017.3
20180821044542 75 115 0.0 0.0 0.01 0.36 0.02 92 1017.3
20180821044041 75 115 0.0 0.0 0.00 0.35 0.00 91 1017.4
20180821043542 75 115 0.0 1.0 0.00 0.35 0.00 91 1017.5
20180821043042 75 115 0.0 1.0 0.00 0.35 0.00 91 1017.5
20180821042542 75 115 0.0 0.0 0.00 0.35 0.00 91 1017.5
20180821042041 75 115 0.0 0.0 0.00 0.35 0.00 90 1017.4
20180821041541 75 115 0.0 0.0 0.00 0.35 0.00 90 1017.3
20180821041042 75 115 0.0 0.0 0.00 0.35 0.00 90 1017.1
20180821040542 75 115 0.0 0.0 0.00 0.35 0.00 89 1017.1
20180821040041 76 115 0.0 1.0 0.00 0.35 0.00 89 1017.1
20180821035536 76 115 0.0 1.0 0.00 0.35 0.35 89 1017.1
20180821035035 76 120 0.0 0.0 0.00 0.35 0.35 89 1017.1
20180821034535 76 120 0.0 0.0 0.00 0.35 0.35 88 1017.0
20180821034035 76 349 0.0 0.0 0.00 0.35 0.35 88 1016.9
20180821033536 77 350 0.0 0.0 0.00 0.35 0.35 87 1016.8
20180821033035 77 350 0.0 1.0 0.00 0.35 0.35 87 1016.9
20180821032535 77 349 0.0 1.0 0.00 0.35 0.35 87 1017.3
20180821032035 77 348 0.0 2.0 0.00 0.35 0.35 87 1017.4
20180821031536 77 348 0.0 2.0 0.00 0.35 0.35 87 1017.4
20180821031035 78 203 0.0 2.0 0.00 0.35 0.35 88 1017.2
20180821030535 78 125 0.0 2.0 0.00 0.35 0.35 89 1017.1
20180821030035 78 108 0.0 1.0 0.00 0.35 0.35 89 1017.2
20180821025536 78 108 0.0 1.0 0.00 0.35 0.35 89 1017.2
20180821025036 78 119 0.0 1.0 0.00 0.35 0.35 89 1017.3
20180821024536 78 119 0.0 1.0 0.00 0.35 0.35 88 1017.1
20180821024035 77 119 0.0 3.0 0.00 0.35 0.35 89 1017.2
20180821023536 77 108 0.0 3.0 0.00 0.35 0.35 90 1017.2
20180821023035 77 118 0.0 0.0 0.00 0.35 0.35 91 1017.3
20180821022535 77 117 0.0 0.0 0.00 0.35 0.35 90 1016.7
20180821022036 78 117 0.0 0.0 0.00 0.35 0.35 90 1016.7
20180821021536 78 117 0.0 0.0 0.00 0.35 0.35 90 1016.8
20180821021036 78 117 0.0 0.0 0.00 0.35 0.35 90 1016.8
20180821020535 78 117 0.0 0.0 0.00 0.35 0.35 90 1016.9
20180821020035 78 117 0.0 0.0 0.00 0.35 0.35 90 1016.9
20180821015535 78 117 0.0 0.0 0.00 0.35 0.35 89 1017.0
20180821015036 78 117 0.0 0.0 0.00 0.35 0.35 90 1017.1
20180821014535 78 117 0.0 0.0 0.00 0.35 0.35 89 1016.9
20180821014035 79 117 0.0 0.0 0.00 0.35 0.35 89 1016.7
20180821013536 79 117 0.0 0.0 0.00 0.35 0.35 89 1016.8
20180821013035 79 117 0.0 0.0 0.00 0.35 0.35 89 1016.7
20180821012536 79 117 0.0 0.0 0.00 0.35 0.35 89 1016.8
20180821012035 79 117 0.0 0.0 0.00 0.35 0.35 90 1016.7
20180821011536 79 117 0.0 0.0 0.00 0.35 0.35 90 1016.7
20180821011035 79 117 0.0 0.0 0.00 0.35 0.35 89 1016.6
20180821010534 80 117 0.0 1.0 0.00 0.35 0.35 90 1016.5
20180821010033 80 117 0.0 1.0 0.00 0.35 0.35 90 1016.4
20180821005534 80 117 0.0 1.0 0.00 0.35 0.35 90 1016.3
20180821005033 80 118 0.0 1.0 0.00 0.35 0.35 91 1016.3
20180821004533 80 118 0.0 1.0 0.00 0.35 0.35 92 1016.2
20180821004034 80 117 0.0 1.0 0.00 0.35 0.35 93 1016.0
20180821003531 80 117 0.0 0.0 0.00 0.35 0.35 92 1015.9
20180821003031 80 117 0.0 0.0 0.00 0.35 0.35 92 1015.8
20180821002532 80 117 0.0 0.0 0.00 0.35 0.35 92 1015.8
20180821002031 80 117 0.0 0.0 0.00 0.35 0.35 91 1015.7
20180821001532 80 117 0.0 0.0 0.00 0.35 0.35 91 1015.6
20180821001030 80 117 0.0 0.0 0.00 0.35 0.35 91 1015.6
20180821000529 80 117 0.0 0.0 0.00 0.35 0.35 90 1015.6
20180821000029 80 117 0.0 0.0 0.00 0.35 0.35 90 1015.6
20180820235529 81 117 0.0 0.0 0.00 0.35 0.35 89 1015.6
20180820235029 81 117 0.0 0.0 0.00 0.35 0.35 89 1015.5
20180820234533 81 117 0.0 0.0 0.00 0.35 0.35 89 1015.6
20180820234029 82 117 0.0 0.0 0.00 0.35 0.35 88 1015.5
20180820233530 82 118 0.0 0.0 0.00 0.35 0.35 87 1015.5
20180820233029 82 117 0.0 0.0 0.00 0.35 0.35 86 1015.4
20180820232529 82 118 0.0 0.0 0.00 0.35 0.35 85 1015.4
20180820232028 82 117 0.0 0.0 0.00 0.35 0.35 86 1015.3
20180820231527 83 117 0.0 0.0 0.00 0.35 0.35 86 1015.3
20180820231027 83 117 0.0 0.0 0.00 0.35 0.35 85 1015.3
20180820230527 83 118 0.0 0.0 0.00 0.35 0.35 85 1015.1
20180820230027 83 117 0.0 0.0 0.00 0.35 0.35 84 1015.0
20180820225527 83 118 0.0 0.0 0.00 0.35 0.35 83 1014.9
20180820225027 84 117 0.0 0.0 0.00 0.35 0.35 81 1015.0
20180820224527 84 117 0.0 0.0 0.00 0.35 0.35 80 1015.0
20180820224027 85 117 0.0 0.0 0.00 0.35 0.35 78 1015.1
20180820223526 85 117 0.0 0.0 0.00 0.35 0.35 78 1015.1
20180820223025 85 117 0.0 0.0 0.00 0.35 0.35 77 1015.2
20180820222525 85 117 0.0 0.0 0.00 0.35 0.35 76 1015.2
20180820222025 85 117 0.0 0.0 0.00 0.35 0.35 75 1015.2
20180820221525 85 117 0.0 0.0 0.00 0.35 0.35 75 1015.2
20180820221026 85 117 0.0 0.0 0.00 0.35 0.35 75 1015.2
20180820220523 86 117 0.0 0.0 0.00 0.35 0.35 74 1015.2
20180820220024 86 117 0.0 0.0 0.00 0.35 0.35 75 1015.2
20180820215523 87 117 0.0 0.0 0.00 0.35 0.35 73 1015.3
20180820215023 88 117 0.0 0.0 0.00 0.35 0.35 69 1015.3
20180820214523 89 117 0.0 0.0 0.00 0.35 0.35 67 1015.4
20180820214022 90 117 0.0 0.0 0.00 0.35 0.35 62 1015.3
20180820213521 90 117 0.0 0.0 0.00 0.35 0.35 65 1015.3
20180820213021 91 117 0.0 1.0 0.00 0.35 0.35 64 1015.4
20180820212521 91 117 0.0 1.0 0.00 0.35 0.35 63 1015.2
20180820212021 89 117 0.0 0.0 0.00 0.35 0.35 68 1015.1
20180820211521 89 117 0.0 0.0 0.00 0.35 0.35 67 1015.2
20180820211021 89 117 0.0 2.0 0.00 0.35 0.35 66 1015.1
20180820210521 89 117 0.0 3.0 0.00 0.35 0.35 67 1015.1
20180820210021 89 140 1.0 4.0 0.00 0.35 0.35 65 1015.1
20180820205521 89 165 0.0 4.0 0.00 0.35 0.35 64 1015.1
20180820205018 89 143 0.0 1.0 0.00 0.35 0.35 67 1015.2
20180820204519 89 136 0.0 2.0 0.00 0.35 0.35 65 1015.2
20180820204019 90 136 0.0 2.0 0.00 0.35 0.35 62 1015.2
20180820203522 90 154 0.0 2.0 0.00 0.35 0.35 61 1015.2
20180820203019 90 143 0.0 2.0 0.00 0.35 0.35 63 1015.1
20180820202519 90 124 0.0 2.0 0.00 0.35 0.35 64 1015.2
20180820202019 90 146 1.0 2.0 0.00 0.35 0.35 62 1015.2
20180820201519 90 205 0.0 2.0 0.00 0.35 0.35 62 1015.2
20180820201019 89 5 0.0 2.0 0.00 0.35 0.35 68 1015.2
20180820200519 89 134 0.0 2.0 0.00 0.35 0.35 65 1015.3
20180820200016 89 120 0.0 2.0 0.00 0.35 0.35 64 1015.4
20180820195516 89 116 0.0 3.0 0.00 0.35 0.35 64 1015.5
20180820195017 89 167 1.0 3.0 0.00 0.35 0.35 64 1015.6
20180820194517 90 124 1.0 4.0 0.00 0.35 0.35 63 1015.6
20180820194016 89 82 1.0 4.0 0.00 0.35 0.35 64 1015.6
20180820193515 90 141 0.0 3.0 0.00 0.35 0.35 64 1015.6
20180820193014 90 89 0.0 2.0 0.00 0.35 0.35 63 1015.7
20180820192515 90 136 1.0 4.0 0.00 0.35 0.35 64 1015.8
20180820192015 90 200 1.0 4.0 0.00 0.35 0.35 62 1015.9
20180820191512 89 89 0.0 2.0 0.00 0.35 0.35 63 1015.9
20180820191013 89 136 0.0 2.0 0.00 0.35 0.35 67 1016.0
20180820190513 88 89 0.0 2.0 0.00 0.35 0.35 67 1016.1
20180820190013 88 355 0.0 2.0 0.00 0.35 0.35 72 1016.1
20180820185513 87 1 0.0 4.0 0.00 0.35 0.35 70 1016.1
20180820185010 87 1 0.0 4.0 0.00 0.35 0.35 69 1016.1
20180820184510 87 354 0.0 2.0 0.00 0.35 0.35 72 1016.3
20180820184014 88 14 0.0 1.0 0.00 0.35 0.35 70 1016.3
20180820183510 87 14 0.0 4.0 0.00 0.35 0.35 67 1016.3
20180820183011 87 15 1.0 4.0 0.00 0.35 0.35 68 1016.3
20180820182508 88 140 0.0 4.0 0.00 0.35 0.35 67 1016.3
20180820182008 88 121 1.0 7.0 0.00 0.35 0.35 69 1016.3
20180820181509 89 273 1.0 7.0 0.00 0.35 0.35 66 1016.4
20180820181009 89 211 0.0 2.0 0.00 0.35 0.35 69 1016.4
20180820180509 88 243 0.0 2.0 0.00 0.35 0.35 68 1016.6
20180820180007 88 131 0.0 2.0 0.00 0.35 0.35 67 1016.6
20180820175504 88 285 1.0 3.0 0.00 0.35 0.35 67 1016.6
20180820175005 89 331 0.0 3.0 0.00 0.35 0.35 68 1016.6
20180820174503 88 127 1.0 3.0 0.00 0.35 0.35 71 1016.6
20180820174002 88 100 0.0 2.0 0.00 0.35 0.35 67 1016.8
20180820173502 88 108 0.0 2.0 0.00 0.35 0.35 69 1016.7
20180820173003 88 139 1.0 4.0 0.00 0.35 0.35 71 1016.7
20180820172503 87 206 1.0 4.0 0.00 0.35 0.35 69 1016.7
20180820172001 87 25 1.0 4.0 0.00 0.35 0.35 70 1016.8
20180820171500 87 171 0.0 2.0 0.00 0.35 0.35 72 1016.9
20180820170959 87 129 1.0 4.0 0.00 0.35 0.35 72 1016.9
20180820170458 86 156 1.0 4.0 0.00 0.35 0.35 74 1017.0
20180820165958 86 75 0.0 3.0 0.00 0.35 0.35 72 1017.1
20180820165459 85 122 0.0 3.0 0.00 0.35 0.35 74 1017.2
20180820164959 85 310 0.0 3.0 0.00 0.35 0.35 73 1017.2
20180820164458 85 54 1.0 5.0 0.00 0.35 0.35 74 1017.3
20180820163958 85 248 1.0 5.0 0.00 0.35 0.35 74 1017.4
20180820163459 84 120 0.0 3.0 0.00 0.35 0.35 77 1017.4
20180820162958 84 49 0.0 3.0 0.00 0.35 0.35 76 1017.4
20180820162459 84 122 0.0 3.0 0.00 0.35 0.35 75 1017.5
20180820161959 83 41 0.0 4.0 0.00 0.35 0.35 77 1017.6
20180820161503 83 18 1.0 5.0 0.00 0.35 0.35 76 1017.6
20180820161459 83 130 1.0 4.0 0.00 0.35 0.35 76 1017.6
20180820160458 83 154 1.0 5.0 0.00 0.35 0.35 76 1017.6
20180820155959 82 221 1.0 4.0 0.00 0.35 0.35 78 1017.6
20180820155459 82 147 0.0 3.0 0.00 0.35 0.35 77 1017.7
20180820154959 82 159 1.0 3.0 0.00 0.35 0.35 76 1017.8
20180820154458 82 207 1.0 5.0 0.00 0.35 0.35 77 1017.8
20180820153958 82 115 1.0 5.0 0.00 0.35 0.35 76 1017.7
20180820153459 82 141 0.0 3.0 0.00 0.35 0.35 77 1017.6
20180820152959 81 142 0.0 2.0 0.00 0.35 0.35 80 1017.7
20180820152459 80 129 0.0 2.0 0.00 0.35 0.35 81 1017.8
20180820151958 80 136 1.0 3.0 0.00 0.35 0.35 84 1017.8
20180820151459 79 231 1.0 3.0 0.00 0.35 0.35 85 1017.8
20180820150959 79 162 1.0 3.0 0.00 0.35 0.35 85 1017.8
20180820150459 78 162 1.0 3.0 0.00 0.35 0.35 85 1017.8
20180820145959 78 135 0.0 3.0 0.00 0.35 0.35 86 1017.8
20180820145459 78 155 0.0 3.0 0.00 0.35 0.35 88 1017.8
20180820144958 78 198 0.0 3.0 0.00 0.35 0.35 87 1017.8
20180820144459 78 120 0.0 3.0 0.00 0.35 0.35 87 1017.8
20180820143959 78 226 0.0 2.0 0.00 0.35 0.35 86 1017.8
20180820143458 78 152 0.0 2.0 0.00 0.35 0.35 86 1017.8
20180820142959 78 133 0.0 2.0 0.00 0.35 0.35 86 1017.7
20180820142459 77 129 0.0 2.0 0.00 0.35 0.35 86 1017.7
20180820141958 77 160 0.0 2.0 0.00 0.35 0.35 86 1017.7
20180820141458 77 121 0.0 1.0 0.00 0.35 0.35 90 1017.7
20180820140958 77 122 0.0 1.0 0.00 0.35 0.35 89 1017.6
20180820140458 77 122 0.0 0.0 0.00 0.35 0.35 90 1017.6
20180820135958 77 122 0.0 1.0 0.00 0.35 0.35 89 1017.6
20180820135458 76 121 0.0 1.0 0.00 0.35 0.35 89 1017.6
20180820134958 76 155 0.0 1.0 0.00 0.35 0.35 88 1017.5
20180820134458 76 134 0.0 1.0 0.00 0.35 0.35 90 1017.4
20180820133956 75 134 0.0 0.0 0.00 0.35 0.35 91 1017.4
20180820133456 75 134 0.0 0.0 0.00 0.35 0.35 92 1017.4
20180820132956 74 134 0.0 1.0 0.00 0.35 0.35 93 1017.4
20180820132457 74 134 0.0 1.0 0.00 0.35 0.35 94 1017.4
20180820131956 73 135 0.0 1.0 0.00 0.35 0.35 96 1017.4
20180820131456 73 148 0.0 1.0 0.00 0.35 0.35 97 1017.4
20180820130956 72 148 0.0 1.0 0.00 0.35 0.35 97 1017.5
20180820130456 72 127 0.0 1.0 0.00 0.35 0.35 98 1017.5
20180820125954 71 146 0.0 1.0 0.00 0.35 0.35 98 1017.4
20180820125454 71 146 0.0 2.0 0.00 0.35 0.35 98 1017.2
20180820124954 71 118 0.0 2.0 0.00 0.35 0.35 98 1017.1
20180820124454 71 134 0.0 0.0 0.00 0.35 0.35 98 1017.1
20180820123954 71 134 0.0 0.0 0.00 0.35 0.35 98 1017.0
20180820123454 70 134 0.0 0.0 0.01 0.35 0.35 98 1016.9
20180820122954 70 134 0.0 2.0 0.01 0.35 0.35 98 1016.8
20180820122454 70 134 0.0 2.0 0.01 0.35 0.35 98 1016.7
20180820121952 70 325 0.0 2.0 0.02 0.35 0.35 98 1016.6
20180820121452 70 325 0.0 2.0 0.02 0.35 0.35 98 1016.7
20180820120950 70 290 0.0 2.0 0.02 0.35 0.35 98 1016.5
20180820120452 70 288 0.0 2.0 0.02 0.35 0.35 98 1016.6
20180820115950 70 350 0.0 2.0 0.03 0.35 0.35 98 1016.2
20180820115450 70 314 0.0 2.0 0.04 0.35 0.35 98 1016.8
20180820114950 70 124 1.0 2.0 0.04 0.35 0.35 98 1016.2
20180820114451 70 131 0.0 3.0 0.04 0.35 0.35 98 1016.5
20180820113950 70 103 0.0 3.0 0.04 0.35 0.35 98 1016.0
20180820113450 70 146 0.0 3.0 0.04 0.34 0.34 97 1016.4
20180820112950 70 126 0.0 1.0 0.04 0.34 0.34 97 1016.3
20180820112449 70 243 0.0 1.0 0.04 0.34 0.34 97 1016.3
20180820111948 70 119 0.0 1.0 0.04 0.33 0.33 98 1016.3
20180820111447 70 346 0.0 1.0 0.04 0.33 0.33 97 1016.8
20180820110948 70 346 0.0 1.0 0.04 0.33 0.33 97 1016.6
20180820110448 70 346 0.0 0.0 0.05 0.33 0.33 97 1016.6
20180820105948 70 346 0.0 0.0 0.04 0.32 0.33 97 1016.9
20180820105448 70 346 0.0 0.0 0.03 0.31 0.32 97 1016.9
20180820104946 70 346 0.0 0.0 0.03 0.31 0.31 97 1016.6
20180820104448 70 346 0.0 0.0 0.03 0.31 0.31 97 1016.6
20180820103946 70 346 0.0 0.0 0.03 0.31 0.31 97 1016.6
20180820103446 70 346 0.0 0.0 0.02 0.30 0.30 97 1016.8
20180820102946 70 346 0.0 0.0 0.02 0.30 0.30 97 1016.6
20180820102446 70 346 0.0 1.0 0.02 0.30 0.30 98 1016.2
20180820101945 70 346 0.0 1.0 0.01 0.29 0.30 97 1016.1
20180820101446 70 116 0.0 0.0 0.01 0.29 0.29 97 1016.2
20180820100946 70 116 0.0 0.0 0.01 0.29 0.29 97 1016.1
20180820100445 69 116 0.0 0.0 0.00 0.28 0.28 97 1015.9
20180820095944 69 116 0.0 0.0 0.00 0.28 0.28 97 1015.8
20180820095444 69 116 0.0 0.0 0.00 0.28 0.28 97 1015.8
20180820094943 69 116 0.0 0.0 0.00 0.28 0.28 97 1015.6
20180820094444 69 116 0.0 0.0 0.00 0.28 0.28 97 1015.5
20180820093943 69 116 0.0 0.0 0.00 0.28 0.28 97 1015.3
20180820093444 69 116 0.0 0.0 0.00 0.28 0.28 97 1015.4
20180820092944 69 117 0.0 0.0 0.00 0.28 0.28 97 1015.3
20180820092446 69 117 0.0 0.0 0.00 0.28 0.28 97 1015.3
20180820091943 69 117 0.0 0.0 0.00 0.28 0.28 97 1015.2
20180820091444 69 117 0.0 0.0 0.00 0.28 0.28 97 1015.2
20180820090942 69 117 0.0 0.0 0.00 0.28 0.28 97 1015.3
20180820090442 69 117 0.0 1.0 0.00 0.28 0.28 97 1015.2
20180820085942 69 117 0.0 1.0 0.00 0.28 0.28 97 1015.1
20180820085442 69 117 0.0 0.0 0.00 0.28 0.28 97 1015.1
20180820084942 69 117 0.0 0.0 0.00 0.28 0.28 97 1015.1
20180820084442 69 117 0.0 0.0 0.00 0.28 0.28 97 1015.1
20180820083942 69 117 0.0 0.0 0.00 0.28 0.28 97 1014.9
20180820083444 69 117 0.0 0.0 0.00 0.28 0.28 97 1014.7
20180820082942 69 117 0.0 0.0 0.00 0.28 0.28 97 1014.7
20180820082442 69 117 0.0 0.0 0.00 0.28 0.28 97 1014.7
20180820081940 69 117 0.0 1.0 0.00 0.28 0.28 97 1014.7
20180820081440 69 117 0.0 1.0 0.00 0.28 0.28 97 1014.8
20180820080940 69 117 0.0 0.0 0.00 0.28 0.28 96 1014.9
20180820080438 69 117 0.0 0.0 0.00 0.28 0.28 96 1014.9
20180820075938 69 117 0.0 0.0 0.00 0.28 0.28 96 1015.1
20180820075439 69 117 0.0 1.0 0.00 0.28 0.28 96 1015.0
20180820074938 69 117 0.0 1.0 0.00 0.28 0.28 96 1015.2
20180820074440 69 117 0.0 1.0 0.00 0.28 0.28 96 1015.3
20180820073938 69 117 0.0 1.0 0.00 0.28 0.28 96 1015.2
20180820073438 69 117 0.0 1.0 0.00 0.28 0.28 96 1014.9
20180820072936 69 65 0.0 2.0 0.00 0.28 0.28 96 1014.9
20180820072435 70 70 0.0 2.0 0.00 0.28 0.28 96 1014.7
20180820071935 70 121 0.0 2.0 0.01 0.28 0.28 96 1014.8
20180820071436 70 122 0.0 2.0 0.03 0.28 0.28 96 1014.7
20180820070936 70 131 0.0 2.0 0.05 0.28 0.28 96 1015.0
20180820070434 70 129 0.0 2.0 0.07 0.28 0.28 96 1015.1
20180820065933 70 131 0.0 1.0 0.22 0.28 0.28 95 1015.1
20180820065434 70 110 0.0 2.0 0.27 0.28 0.28 95 1015.2
20180820064934 70 107 0.0 2.0 0.28 0.28 0.28 95 1015.3
20180820064434 70 127 0.0 1.0 0.28 0.28 0.28 95 1015.5
20180820063933 70 127 0.0 1.0 0.28 0.28 0.28 95 1015.6
20180820063431 71 121 0.0 1.0 0.28 0.28 0.28 95 1015.7
20180820062931 71 121 0.0 1.0 0.28 0.28 0.28 95 1015.8
20180820062432 71 121 0.0 1.0 0.28 0.28 0.28 95 1015.6